Time;durP1;ratioP1;P1;durP2;ratioP2;P2;SDS_P1;SDS_P2;PMS_P1;PMS_P2;Temp;Humidity;BMP_temperature;BMP_pressure;BME280_temperature;BME280_humidity;BME280_pressure;Samples;Min_cycle;Max_cycle;Signal;HPM_P1;HPM_P2
2022/08/06 00:02:03;;;;;;;3.30;1.50;;;23.70;66.30;;;24.17;42.82;99175.78;5048929;27;113137;-73
2022/08/06 00:04:29;;;;;;;2.73;1.40;;;23.60;65.80;;;24.17;42.92;99172.13;5041792;27;124503;-73
2022/08/06 00:06:56;;;;;;;1.50;1.40;;;23.60;65.90;;;24.17;42.83;99172.94;5044690;27;123757;-73
2022/08/06 00:09:22;;;;;;;3.43;1.80;;;23.70;66.00;;;24.19;42.78;99173.38;5026598;27;113151;-73
2022/08/06 00:11:49;;;;;;;2.37;1.80;;;23.70;65.90;;;24.16;43.11;99170.53;5034851;27;113267;-73
2022/08/06 00:14:15;;;;;;;5.27;1.73;;;23.60;65.80;;;24.15;42.80;99169.72;5029806;27;123300;-72
2022/08/06 00:16:42;;;;;;;4.63;1.77;;;23.60;65.90;;;24.17;42.71;99172.94;5035620;27;123605;-72
2022/08/06 00:19:08;;;;;;;2.10;1.73;;;23.60;65.60;;;24.16;42.87;99179.81;5043369;27;114644;-72
2022/08/06 00:21:35;;;;;;;2.40;2.10;;;23.60;65.40;;;24.14;42.56;99167.28;5035903;27;114006;-72
2022/08/06 00:24:01;;;;;;;3.87;1.90;;;23.60;65.10;;;24.09;42.32;99174.09;5036837;27;126607;-72
2022/08/06 00:26:28;;;;;;;1.67;1.50;;;23.50;64.80;;;24.04;42.25;99182.94;5043002;27;124479;-72
2022/08/06 00:28:55;;;;;;;2.13;1.77;;;23.50;64.80;;;24.01;42.34;99181.72;5047744;27;113545;-72
2022/08/06 00:31:22;;;;;;;2.13;1.73;;;23.50;65.60;;;24.01;42.29;99180.91;5030087;27;113481;-72
2022/08/06 00:33:49;;;;;;;2.60;1.87;;;23.50;64.80;;;23.99;42.37;99186.97;5037031;27;124177;-72
2022/08/06 00:36:15;;;;;;;2.57;1.60;;;23.50;64.50;;;23.98;42.18;99184.53;5030599;27;124143;-72
2022/08/06 00:38:42;;;;;;;2.23;1.70;;;23.40;64.30;;;23.97;42.31;99180.09;5040982;27;113298;-73
2022/08/06 00:41:08;;;;;;;3.80;2.30;;;23.40;64.90;;;23.96;41.88;99181.28;5029025;27;114857;-72
2022/08/06 00:43:35;;;;;;;1.80;1.57;;;23.40;63.80;;;23.92;41.90;99183.28;5034889;27;124344;-72
2022/08/06 00:46:02;;;;;;;1.67;1.53;;;23.40;63.80;;;23.88;41.79;99186.06;5044714;27;124506;-73
2022/08/06 00:48:28;;;;;;;3.33;1.70;;;23.30;63.40;;;23.83;41.66;99186.47;5035640;27;114410;-72
2022/08/06 00:50:55;;;;;;;1.93;1.43;;;23.30;63.20;;;23.78;41.80;99192.47;5032194;27;113802;-72
2022/08/06 00:53:21;;;;;;;1.40;1.20;;;23.20;63.20;;;23.75;41.87;99196.88;5038719;27;123397;-72
2022/08/06 00:55:48;;;;;;;3.33;2.10;;;23.20;63.30;;;23.73;41.59;99198.47;5030691;27;122965;-72
2022/08/06 00:58:14;;;;;;;2.80;1.40;;;23.20;63.10;;;23.71;41.53;99200.84;5028318;27;114159;-72
2022/08/06 01:00:41;;;;;;;3.30;2.10;;;23.10;62.70;;;23.67;41.37;99205.63;5039948;27;113874;-72
2022/08/06 01:03:10;;;;;;;3.90;1.63;;;23.10;62.50;;;23.61;40.85;99205.19;5037455;27;123849;-72
2022/08/06 01:05:37;;;;;;;2.37;1.40;;;23.10;62.00;;;23.56;40.82;99205.53;5042280;27;123291;-73
2022/08/06 01:08:04;;;;;;;2.83;1.97;;;23.00;61.60;;;23.48;41.00;99204.69;5026856;27;113907;-72
2022/08/06 01:10:30;;;;;;;1.77;1.33;;;23.00;61.50;;;23.47;40.75;99199.44;5041187;27;114628;-72
2022/08/06 01:12:57;;;;;;;4.30;1.90;;;22.90;61.40;;;23.42;41.29;99213.88;5032206;27;124450;-72
2022/08/06 01:15:24;;;;;;;3.30;1.33;;;22.90;61.60;;;23.40;40.55;99207.81;5041256;27;123326;-72
2022/08/06 01:17:59;;;;;;;2.73;1.70;;;22.80;60.80;;;23.31;40.73;99211.78;5046093;27;114743;-72
2022/08/06 01:21:15;;;;;;;3.80;1.90;;;22.80;60.90;;;23.22;40.93;99216.94;5043906;27;113373;-72
2022/08/06 01:24:06;;;;;;;5.00;1.60;;;22.70;61.10;;;23.20;41.05;99224.16;5038868;27;123356;-72
2022/08/06 01:26:36;;;;;;;1.70;1.27;;;22.70;61.10;;;23.19;40.65;99206.44;5041086;27;123916;-72
2022/08/06 01:29:23;;;;;;;2.13;1.40;;;22.70;61.00;;;23.19;40.85;99211.28;5042550;27;115567;-73
2022/08/06 01:32:04;;;;;;;2.53;1.53;;;22.70;61.70;;;23.19;40.97;99208.44;5029282;27;113264;-73
2022/08/06 01:34:36;;;;;;;2.20;1.40;;;22.70;61.10;;;23.22;40.92;99205.66;5033210;27;124467;-73
2022/08/06 01:38:04;;;;;;;3.53;1.43;;;22.70;60.80;;;23.21;40.83;99223.75;5047113;27;123201;-73
2022/08/06 01:40:36;;;;;;;3.33;1.50;;;22.70;61.00;;;23.25;40.93;99207.69;5037703;27;114673;-74
2022/08/06 01:43:07;;;;;;;2.23;1.33;;;22.70;61.10;;;23.27;40.99;99210.94;5035685;27;114128;-72
2022/08/06 01:45:36;;;;;;;1.30;1.20;;;22.70;61.60;;;23.31;40.46;99211.78;5026792;27;122920;-73
2022/08/06 01:48:07;;;;;;;1.70;1.30;;;22.80;60.50;;;23.32;40.44;99209.75;5037339;27;123851;-72
2022/08/06 01:50:42;;;;;;;2.30;1.30;;;22.80;60.30;;;23.33;40.15;99222.69;5037521;27;114398;-72
2022/08/06 01:53:36;;;;;;;2.60;1.30;;;22.80;60.00;;;23.35;40.29;99223.91;5046164;27;114029;-72
2022/08/06 01:56:06;;;;;;;1.67;1.30;;;22.80;59.90;;;23.29;40.20;99222.66;5035007;27;123916;-72
2022/08/06 01:58:44;;;;;;;2.20;1.47;;;22.80;59.60;;;23.25;40.31;99221.78;5040395;27;123322;-72
2022/08/06 02:01:13;;;;;;;1.77;1.27;;;22.70;59.60;;;23.24;39.87;99228.66;5043740;27;114419;-73
2022/08/06 02:03:51;;;;;;;2.30;1.50;;;22.70;59.80;;;23.25;40.10;99224.63;5044182;27;113202;-73
2022/08/06 02:06:24;;;;;;;2.83;1.23;;;22.80;59.60;;;23.21;40.17;99235.03;5039180;27;124021;-72
2022/08/06 02:08:52;;;;;;;2.03;1.27;;;22.70;59.50;;;23.17;40.05;99222.91;5047315;27;124525;-73
2022/08/06 02:11:19;;;;;;;2.57;1.33;;;22.70;59.50;;;23.10;39.92;99234.09;5027544;27;114496;-73
2022/08/06 02:13:47;;;;;;;1.83;1.40;;;22.60;59.20;;;23.07;40.17;99232.06;5037446;27;113858;-72
2022/08/06 02:16:15;;;;;;;1.47;1.33;;;22.50;59.40;;;23.07;40.22;99217.97;5030296;27;124765;-73
2022/08/06 02:18:45;;;;;;;1.60;1.37;;;22.60;59.40;;;22.99;40.53;99216.28;5045725;27;123606;-72
2022/08/06 02:21:19;;;;;;;4.10;1.37;;;22.50;59.50;;;22.89;40.40;99229.84;5035820;27;115092;-72
2022/08/06 02:23:47;;;;;;;4.40;1.33;;;22.40;59.60;;;22.84;40.35;99230.19;5027033;27;114302;-73
2022/08/06 02:26:15;;;;;;;3.27;1.70;;;22.30;59.60;;;22.78;40.79;99230.91;5019737;27;123017;-72
2022/08/06 02:28:43;;;;;;;2.67;1.37;;;22.30;60.00;;;22.75;40.65;99229.66;5034402;27;123522;-73
2022/08/06 02:31:10;;;;;;;2.10;1.40;;;22.20;60.00;;;22.78;40.83;99233.72;5041900;27;114754;-72
2022/08/06 02:33:37;;;;;;;4.97;1.33;;;22.20;59.90;;;22.80;40.61;99226.50;5035976;27;113786;-73
2022/08/06 02:36:14;;;;;;;4.30;1.57;;;22.30;60.00;;;22.80;40.31;99220.88;5028896;27;124011;-72
2022/08/06 02:38:56;;;;;;;3.40;1.57;;;22.30;59.70;;;22.73;40.60;99223.63;5014715;27;122451;-73
2022/08/06 02:41:54;;;;;;;2.23;1.53;;;22.20;59.90;;;22.67;40.73;99233.59;5039695;27;114474;-73
2022/08/06 02:44:45;;;;;;;1.70;1.30;;;22.20;60.10;;;22.66;40.97;99234.78;5043926;27;113124;-73
2022/08/06 02:47:18;;;;;;;3.33;1.40;;;22.20;60.30;;;22.64;40.69;99237.16;5028287;27;123944;-72
2022/08/06 02:49:48;;;;;;;4.03;1.40;;;22.10;60.00;;;22.61;41.16;99235.13;5024877;27;121648;-73
2022/08/06 02:52:28;;;;;;;2.40;1.40;;;22.10;60.20;;;22.61;41.21;99235.13;5037822;27;114483;-73
2022/08/06 02:55:10;;;;;;;3.07;1.77;;;22.10;60.30;;;22.59;41.36;99238.31;5033313;27;114465;-73
2022/08/06 02:57:41;;;;;;;2.07;1.47;;;22.10;60.50;;;22.61;41.31;99237.94;5033046;27;124629;-72
2022/08/06 03:00:09;;;;;;;1.73;1.27;;;22.10;60.40;;;22.60;41.21;99245.59;5028559;27;122609;-72
2022/08/06 03:02:38;;;;;;;2.00;1.40;;;22.10;60.60;;;22.59;41.08;99243.13;5044216;27;113909;-72
2022/08/06 03:05:09;;;;;;;1.63;1.20;;;22.10;60.60;;;22.62;41.39;99245.19;5026852;27;113091;-72
2022/08/06 03:07:39;;;;;;;2.80;1.53;;;22.10;60.70;;;22.59;41.55;99240.31;5039965;27;123749;-72
2022/08/06 03:10:08;;;;;;;1.83;1.57;;;22.10;60.70;;;22.56;41.38;99238.28;5045363;27;123914;-72
2022/08/06 03:12:37;;;;;;;3.90;1.97;;;22.10;61.00;;;22.53;41.61;99241.84;5028021;27;115173;-72
2022/08/06 03:15:06;;;;;;;1.30;1.20;;;22.00;61.00;;;22.50;41.52;99240.63;5031064;27;114155;-71
2022/08/06 03:17:34;;;;;;;1.80;1.30;;;22.00;61.20;;;22.50;41.82;99244.25;5018101;27;122909;-72
2022/08/06 03:20:02;;;;;;;2.73;1.47;;;22.00;61.10;;;22.49;41.67;99247.47;5037074;27;123820;-72
2022/08/06 03:22:32;;;;;;;1.43;1.17;;;22.00;61.20;;;22.50;41.77;99249.88;5032865;27;114228;-72
2022/08/06 03:25:01;;;;;;;3.27;1.60;;;22.00;61.50;;;22.50;41.73;99244.25;5043074;27;114018;-72
2022/08/06 03:27:30;;;;;;;1.80;1.20;;;22.00;61.40;;;22.54;41.88;99243.47;5041731;27;123251;-72
2022/08/06 03:29:58;;;;;;;3.00;1.70;;;22.00;61.40;;;22.56;41.89;99243.91;5030719;27;123750;-71
2022/08/06 03:32:25;;;;;;;2.77;1.40;;;22.00;61.50;;;22.59;41.59;99248.78;5028032;27;114542;-72
2022/08/06 03:34:53;;;;;;;5.03;1.60;;;22.10;61.60;;;22.57;41.68;99257.63;5045097;27;112926;-72
2022/08/06 03:37:21;;;;;;;1.97;1.33;;;22.10;61.60;;;22.58;41.80;99259.22;5027706;27;124087;-72
2022/08/06 03:39:48;;;;;;;2.50;1.50;;;22.00;62.20;;;22.57;41.73;99263.25;5028821;27;123904;-72
2022/08/06 03:42:15;;;;;;;2.03;1.43;;;22.10;61.60;;;22.56;41.86;99269.25;5020428;27;113828;-72
2022/08/06 03:44:42;;;;;;;3.30;1.80;;;22.00;61.60;;;22.54;41.77;99263.19;5029982;27;113940;-72
2022/08/06 03:47:21;;;;;;;3.03;1.30;;;22.00;61.50;;;22.48;41.95;99273.97;5033560;27;124336;-72
2022/08/06 03:50:04;;;;;;;2.10;1.50;;;22.00;61.60;;;22.40;42.00;99264.59;5030266;27;123542;-72
2022/08/06 03:52:38;;;;;;;1.70;1.40;;;21.90;61.80;;;22.34;42.32;99276.59;5029567;27;113426;-72
2022/08/06 03:55:09;;;;;;;1.87;1.47;;;21.80;61.90;;;22.31;42.44;99283.00;5029780;27;114821;-72
2022/08/06 03:57:40;;;;;;;2.93;1.73;;;21.80;62.10;;;22.32;42.26;99270.53;5022417;27;123839;-72
2022/08/06 04:00:11;;;;;;;3.80;1.50;;;21.80;62.10;;;22.27;42.91;99278.13;5031522;27;123622;-72
2022/08/06 04:02:43;;;;;;;2.50;1.53;;;21.80;62.30;;;22.23;42.70;99276.44;5020187;27;114205;-73
2022/08/06 04:05:18;;;;;;;3.40;1.80;;;21.70;62.40;;;22.19;42.63;99284.00;5038100;27;115271;-72
2022/08/06 04:07:51;;;;;;;5.57;1.20;;;21.70;62.60;;;22.18;42.71;99290.81;5040754;27;124106;-72
2022/08/06 04:10:18;;;;;;;4.57;1.50;;;21.60;62.60;;;22.15;43.01;99283.13;5028799;27;123010;-72
2022/08/06 04:12:46;;;;;;;2.53;1.50;;;21.60;62.80;;;22.14;42.98;99278.66;5002914;27;112620;-72
2022/08/06 04:15:13;;;;;;;1.87;1.40;;;21.60;62.90;;;22.17;43.08;99283.56;5032316;27;113854;-72
2022/08/06 04:17:42;;;;;;;2.40;1.47;;;21.70;63.10;;;22.21;42.63;99290.06;5016965;27;123571;-72
2022/08/06 04:20:11;;;;;;;3.00;1.40;;;21.70;63.00;;;22.19;43.20;99292.44;5044584;27;124100;-72
2022/08/06 04:22:38;;;;;;;1.77;1.50;;;21.70;63.20;;;22.19;43.15;99290.47;5032512;27;114005;-72
2022/08/06 04:25:05;;;;;;;4.70;1.87;;;21.70;63.10;;;22.18;43.19;99290.81;5028377;27;113900;-72
2022/08/06 04:27:34;;;;;;;4.70;1.43;;;21.70;63.30;;;22.14;43.35;99295.53;5035510;27;123508;-72
2022/08/06 04:30:01;;;;;;;4.30;1.80;;;21.60;63.20;;;22.11;43.37;99297.16;5030996;27;123449;-72
2022/08/06 04:32:29;;;;;;;4.00;1.83;;;21.60;63.60;;;22.06;43.08;99306.72;5047740;27;114104;-72
2022/08/06 04:34:56;;;;;;;2.00;1.40;;;21.50;63.60;;;22.02;43.55;99305.03;5041584;27;113758;-72
2022/08/06 04:37:24;;;;;;;9.20;1.73;;;21.50;63.90;;;21.98;43.65;99302.16;5027010;27;123479;-72
2022/08/06 04:39:50;;;;;;;2.00;1.40;;;21.40;63.90;;;22.00;43.72;99310.22;5034987;27;124271;-71
2022/08/06 04:42:17;;;;;;;3.30;1.40;;;21.50;64.10;;;22.01;43.72;99315.47;5017915;27;113196;-73
2022/08/06 04:44:45;;;;;;;2.50;1.50;;;21.40;64.00;;;22.03;43.74;99315.06;5032874;27;113921;-72
2022/08/06 04:47:12;;;;;;;1.47;1.20;;;21.50;64.30;;;22.02;43.69;99314.28;5030251;27;123328;-72
2022/08/06 04:49:38;;;;;;;1.43;1.27;;;21.50;64.20;;;22.02;43.58;99322.72;5035436;27;123850;-72
2022/08/06 04:52:05;;;;;;;1.53;1.27;;;21.50;64.20;;;22.06;43.82;99317.16;5029474;27;115822;-72
2022/08/06 04:54:31;;;;;;;5.37;1.50;;;21.50;64.30;;;22.07;43.79;99324.41;5027258;27;114875;-72
2022/08/06 04:56:58;;;;;;;1.60;1.20;;;21.50;64.30;;;22.05;43.41;99321.94;5027700;27;124538;-72
2022/08/06 04:59:25;;;;;;;2.80;1.47;;;21.50;64.40;;;22.03;43.68;99323.53;5033392;27;123935;-72
2022/08/06 05:01:51;;;;;;;1.80;1.50;;;21.50;64.50;;;22.04;43.89;99325.97;5038618;27;115575;-72
2022/08/06 05:04:17;;;;;;;1.63;1.30;;;21.50;64.60;;;22.05;43.90;99327.59;5043214;27;112166;-72
2022/08/06 05:06:55;;;;;;;2.33;1.40;;;21.50;64.70;;;22.05;43.89;99326.78;5034431;27;123237;-72
2022/08/06 05:09:27;;;;;;;3.83;1.60;;;21.50;64.80;;;22.04;44.04;99333.59;5033435;27;124279;-72
2022/08/06 05:12:08;;;;;;;2.97;1.43;;;21.50;64.90;;;22.01;44.00;99349.25;5026554;27;114102;-72
2022/08/06 05:15:18;;;;;;;4.60;1.50;;;21.50;64.90;;;22.00;43.89;99347.63;5028688;27;114170;-72
2022/08/06 05:17:57;;;;;;;12.23;1.50;;;21.50;65.00;;;22.05;44.11;99344.47;5025047;27;124427;-72
2022/08/06 05:20:26;;;;;;;3.33;1.80;;;21.50;65.00;;;22.08;43.91;99351.34;5013409;28;122618;-72
2022/08/06 05:23:03;;;;;;;8.77;1.97;;;21.50;65.00;;;22.06;43.83;99351.75;5027412;27;113976;-72
2022/08/06 05:25:32;;;;;;;1.40;1.30;;;21.50;65.10;;;22.04;43.92;99353.31;5026524;27;113806;-72
2022/08/06 05:28:00;;;;;;;2.17;1.57;;;21.50;65.10;;;22.05;44.35;99354.91;5028896;27;124003;-72
2022/08/06 05:30:26;;;;;;;2.60;1.60;;;21.50;65.30;;;22.09;44.34;99355.81;5027586;27;123326;-72
2022/08/06 05:32:53;;;;;;;4.10;1.70;;;21.50;65.30;;;22.07;43.89;99349.72;5034732;27;114286;-72
2022/08/06 05:35:19;;;;;;;2.50;1.63;;;21.50;65.20;;;22.03;44.22;99354.47;5038840;27;111987;-72
2022/08/06 05:37:46;;;;;;;3.40;1.77;;;21.50;65.10;;;21.99;44.40;99362.06;5029403;27;124426;-72
2022/08/06 05:40:12;;;;;;;2.03;1.40;;;21.40;65.50;;;21.98;44.46;99364.06;5039428;27;124015;-71
2022/08/06 05:42:39;;;;;;;3.63;1.90;;;21.40;65.40;;;21.95;44.38;99362.00;5047907;27;115680;-72
2022/08/06 05:45:11;;;;;;;3.67;1.90;;;21.40;65.80;;;21.93;44.44;99361.56;5047923;27;115046;-72
2022/08/06 05:47:41;;;;;;;2.30;1.17;;;21.30;65.80;;;21.93;44.54;99364.38;5048623;27;124114;-73
2022/08/06 05:50:18;;;;;;;3.57;1.57;;;21.40;65.90;;;21.93;44.42;99369.19;5030700;27;123939;-72
2022/08/06 05:53:02;;;;;;;2.50;1.50;;;21.40;66.10;;;21.94;44.71;99371.63;5042012;27;114031;-72
2022/08/06 05:55:35;;;;;;;2.23;1.73;;;21.40;66.20;;;21.98;44.87;99369.69;5040938;27;114516;-72
2022/08/06 05:58:07;;;;;;;2.83;1.57;;;21.40;66.40;;;22.03;44.88;99371.34;5030132;27;123980;-72
2022/08/06 06:00:35;;;;;;;2.10;1.50;;;21.40;66.30;;;22.03;44.82;99376.97;5041871;27;123821;-71
2022/08/06 06:03:06;;;;;;;4.33;1.90;;;21.50;66.60;;;22.06;44.99;99374.25;5037060;27;116678;-73
2022/08/06 06:05:34;;;;;;;3.90;1.67;;;21.40;66.70;;;22.08;44.43;99378.69;5032528;27;114234;-74
2022/08/06 06:08:01;;;;;;;2.80;1.77;;;21.50;66.70;;;22.02;44.93;99378.19;5028123;27;124171;-73
2022/08/06 06:10:29;;;;;;;3.27;1.47;;;21.40;66.70;;;21.96;44.60;99386.13;5029391;27;123799;-73
2022/08/06 06:12:56;;;;;;;4.17;1.77;;;21.40;66.80;;;21.92;45.05;99381.63;5045007;27;115004;-72
2022/08/06 06:15:23;;;;;;;2.10;1.27;;;21.30;67.00;;;21.85;45.22;99387.94;5031387;27;114497;-72
2022/08/06 06:18:05;;;;;;;3.60;2.20;;;21.30;67.30;;;21.82;45.23;99381.06;5031529;27;123993;-73
2022/08/06 06:21:18;;;;;;;4.27;1.47;;;21.20;67.50;;;21.87;45.52;99387.56;5030571;27;123970;-73
2022/08/06 06:24:20;;;;;;;3.43;1.93;;;21.30;67.60;;;21.95;45.05;99390.16;5029943;27;114802;-73
2022/08/06 06:27:36;;;;;;;3.67;1.83;;;21.30;67.50;;;22.05;44.88;99403.56;5034129;27;113957;-73
2022/08/06 06:30:07;;;;;;;2.97;1.77;;;21.40;67.50;;;22.18;44.90;99397.75;5020222;27;124528;-73
2022/08/06 06:32:53;;;;;;;3.07;1.63;;;21.50;67.40;;;22.27;44.64;99398.34;5039412;27;124331;-73
2022/08/06 06:35:37;;;;;;;3.63;1.53;;;21.60;67.90;;;22.32;44.44;99403.66;5029318;27;115644;-73
2022/08/06 06:38:28;;;;;;;3.60;1.87;;;21.70;67.00;;;22.42;44.51;99407.84;5049089;27;114865;-73
2022/08/06 06:41:23;;;;;;;5.63;1.80;;;21.80;66.70;;;22.42;44.65;99408.66;5051747;27;123404;-73
2022/08/06 06:43:51;;;;;;;2.80;1.80;;;21.70;66.80;;;22.40;44.44;99413.84;5034156;27;123910;-72
2022/08/06 06:46:35;;;;;;;4.07;1.70;;;21.80;66.70;;;22.39;44.14;99415.03;5033283;27;114194;-73
2022/08/06 06:49:28;;;;;;;1.90;1.70;;;21.80;66.70;;;22.45;44.24;99410.72;5038876;27;113839;-73
2022/08/06 06:52:05;;;;;;;3.07;2.10;;;21.80;66.70;;;22.48;44.12;99414.78;5049002;27;125263;-73
2022/08/06 06:54:40;;;;;;;3.40;1.53;;;21.90;66.80;;;22.44;44.32;99417.53;5036028;27;123717;-73
2022/08/06 06:57:11;;;;;;;7.50;1.80;;;21.80;66.70;;;22.49;44.39;99424.88;5033174;27;113536;-73
2022/08/06 06:59:43;;;;;;;2.20;1.67;;;21.80;66.70;;;22.57;43.97;99426.59;5031033;27;113961;-73
2022/08/06 07:02:19;;;;;;;3.73;1.47;;;21.90;66.80;;;22.68;43.85;99416.31;5036990;27;124086;-73
2022/08/06 07:04:49;;;;;;;6.03;1.70;;;22.00;66.50;;;22.78;43.75;99425.28;5033446;27;123078;-73
2022/08/06 07:07:17;;;;;;;2.17;1.87;;;22.10;66.50;;;22.84;43.65;99423.81;5032570;27;114151;-71
2022/08/06 07:09:47;;;;;;;2.30;1.80;;;22.10;66.10;;;22.82;43.41;99421.34;5035129;27;97185;-71
2022/08/06 07:12:18;;;;;;;6.87;1.77;;;22.10;65.90;;;22.79;43.75;99421.31;5029321;27;124125;-71
2022/08/06 07:14:49;;;;;;;4.17;1.93;;;22.10;66.00;;;22.80;43.71;99428.56;5029053;27;123829;-73
2022/08/06 07:17:18;;;;;;;3.70;1.93;;;22.10;66.10;;;22.84;43.67;99435.06;5032490;27;114181;-73
2022/08/06 07:19:48;;;;;;;3.73;1.80;;;22.10;65.90;;;22.86;43.42;99427.03;5031593;27;113559;-71
2022/08/06 07:22:16;;;;;;;2.17;1.50;;;22.20;65.90;;;22.93;43.59;99424.31;5033850;27;124189;-71
2022/08/06 07:24:43;;;;;;;2.40;1.93;;;22.30;65.90;;;22.97;43.25;99427.22;5036467;27;123753;-71
2022/08/06 07:27:12;;;;;;;2.37;1.70;;;22.30;65.70;;;23.03;43.31;99423.69;5031343;27;115338;-71
2022/08/06 07:29:40;;;;;;;4.33;1.63;;;22.40;65.80;;;23.05;43.21;99420.47;5032120;27;114935;-71
2022/08/06 07:32:11;;;;;;;2.27;1.80;;;22.40;65.40;;;23.02;43.25;99424.88;5028271;27;123109;-71
2022/08/06 07:34:39;;;;;;;2.13;1.57;;;22.40;65.60;;;23.03;43.32;99439.81;5045852;27;124604;-72
2022/08/06 07:37:07;;;;;;;3.03;1.70;;;22.40;65.40;;;23.01;43.07;99440.16;5037828;27;114033;-71
2022/08/06 07:39:38;;;;;;;2.87;1.73;;;22.40;65.30;;;22.98;43.31;99442.94;5044640;27;114330;-71
2022/08/06 07:42:15;;;;;;;1.77;1.27;;;22.40;65.20;;;22.97;43.25;99430.88;5042553;27;124197;-71
2022/08/06 07:44:49;;;;;;;3.80;2.20;;;22.40;65.40;;;22.92;43.08;99434.78;5034894;27;123599;-71
2022/08/06 07:47:34;;;;;;;1.93;1.50;;;22.30;65.00;;;22.85;43.12;99443.13;5041261;27;114367;-71
2022/08/06 07:50:01;;;;;;;2.10;1.70;;;22.30;65.20;;;22.84;43.44;99438.69;5029606;27;113885;-72
2022/08/06 07:52:29;;;;;;;3.03;2.00;;;22.20;65.30;;;22.86;43.45;99433.50;5038468;27;124151;-72
2022/08/06 07:54:56;;;;;;;3.20;1.87;;;22.20;65.30;;;22.90;43.17;99440.00;5045796;27;123545;-72
2022/08/06 07:57:24;;;;;;;3.90;1.60;;;22.20;65.30;;;22.96;43.50;99431.22;5037531;27;114416;-72
2022/08/06 07:59:52;;;;;;;2.83;1.77;;;22.30;65.50;;;23.01;43.24;99434.53;5042753;27;114025;-72
2022/08/06 08:02:19;;;;;;;5.03;2.10;;;22.30;65.30;;;23.05;42.84;99435.41;5035445;27;124075;-72
2022/08/06 08:07:32;;;;;;;5.93;2.20;;;22.40;64.80;;;23.01;42.78;99431.72;5049265;27;114879;-73
2022/08/06 08:10:00;;;;;;;3.23;1.93;;;22.40;64.70;;;23.02;42.82;99430.50;5031186;27;114008;-72
2022/08/06 08:12:27;;;;;;;3.50;2.00;;;22.40;64.50;;;23.03;42.92;99429.34;5035337;27;123454;-72
2022/08/06 08:14:54;;;;;;;3.60;1.60;;;22.40;64.90;;;23.09;42.96;99419.34;5031616;27;123818;-73
2022/08/06 08:17:20;;;;;;;2.57;1.70;;;22.40;65.20;;;23.22;43.03;99419.94;5028197;27;115730;-72
2022/08/06 08:19:47;;;;;;;3.20;1.57;;;22.60;65.20;;;23.36;42.59;99425.75;5028389;27;114859;-72
2022/08/06 08:22:18;;;;;;;10.10;1.73;;;22.60;64.70;;;23.46;42.29;99421.44;5033239;27;124138;-73
2022/08/06 08:24:47;;;;;;;2.63;1.77;;;22.70;64.40;;;23.55;42.37;99421.13;5032434;27;123413;-72
2022/08/06 08:27:14;;;;;;;3.93;1.60;;;22.80;64.30;;;23.66;42.22;99405.13;5034185;27;114384;-73
2022/08/06 08:29:42;;;;;;;4.00;1.80;;;22.90;65.10;;;23.77;41.78;99406.09;5031586;27;113667;-73
2022/08/06 08:32:09;;;;;;;4.67;1.97;;;23.00;64.10;;;23.91;41.51;99401.81;5031810;27;123547;-73
2022/08/06 08:34:36;;;;;;;4.57;1.60;;;23.10;63.70;;;24.00;40.63;99407.97;5028796;27;123873;-73
2022/08/06 08:37:03;;;;;;;2.27;1.70;;;23.20;62.30;;;23.99;40.26;99406.31;5032757;27;114219;-72
2022/08/06 08:39:30;;;;;;;6.00;1.93;;;23.20;61.40;;;23.96;40.42;99413.56;5036522;27;113977;-73
2022/08/06 08:42:20;;;;;;;3.73;1.80;;;23.20;61.50;;;23.91;40.54;99413.09;5032961;27;124501;-72
2022/08/06 08:44:49;;;;;;;2.50;1.80;;;23.20;61.50;;;23.84;40.62;99413.03;5033243;27;123075;-73
2022/08/06 08:47:18;;;;;;;4.10;1.63;;;23.20;61.60;;;23.84;40.63;99415.88;5022392;27;113431;-72
2022/08/06 08:49:55;;;;;;;3.37;1.87;;;23.20;61.60;;;23.84;40.52;99416.66;5028744;27;113231;-73
2022/08/06 08:52:33;;;;;;;4.73;1.90;;;23.20;61.40;;;23.85;40.53;99425.94;5032597;27;124422;-71
2022/08/06 08:55:06;;;;;;;1.90;1.60;;;23.20;61.30;;;23.87;40.59;99412.25;5027090;27;124903;-72
2022/08/06 08:57:33;;;;;;;4.10;1.70;;;23.20;61.30;;;23.92;40.39;99415.53;5013511;27;113577;-71
2022/08/06 09:00:04;;;;;;;2.07;1.60;;;23.30;61.20;;;23.95;40.48;99414.75;5032737;27;114456;-72
2022/08/06 09:02:31;;;;;;;4.57;2.20;;;23.30;61.00;;;23.99;40.31;99411.97;5038932;27;123895;-72
2022/08/06 09:04:59;;;;;;;5.50;1.73;;;23.40;60.90;;;24.03;40.36;99415.66;5027330;27;123618;-72
2022/08/06 09:07:27;;;;;;;3.77;1.70;;;23.40;60.80;;;24.10;40.32;99418.56;5029296;27;115001;-73
2022/08/06 09:09:55;;;;;;;2.40;1.60;;;23.50;60.80;;;24.16;39.92;99419.81;5026845;27;114568;-71
2022/08/06 09:12:22;;;;;;;3.17;1.77;;;23.60;60.20;;;24.20;39.88;99426.28;5037542;27;124767;-71
2022/08/06 09:14:49;;;;;;;1.30;1.20;;;23.60;60.20;;;24.30;39.83;99429.63;5026863;27;123570;-70
2022/08/06 09:17:16;;;;;;;2.63;1.80;;;23.70;60.10;;;24.37;39.56;99435.34;5042001;27;113581;-70
2022/08/06 09:19:43;;;;;;;1.60;1.40;;;23.70;59.80;;;24.45;39.57;99431.41;5028438;27;112829;-71
2022/08/06 09:22:10;;;;;;;4.70;1.60;;;23.80;59.80;;;24.51;39.54;99437.50;5026587;27;124418;-71
2022/08/06 09:24:37;;;;;;;3.03;1.37;;;23.90;59.50;;;24.58;39.16;99429.91;5030030;27;124191;-70
2022/08/06 09:27:09;;;;;;;2.67;1.80;;;24.00;59.50;;;24.63;38.53;99426.69;5025919;27;113469;-73
2022/08/06 09:29:42;;;;;;;3.10;1.50;;;24.00;58.70;;;24.62;38.91;99435.56;5039534;27;114001;-73
2022/08/06 09:32:11;;;;;;;2.17;1.70;;;24.00;58.60;;;24.65;38.26;99440.44;5041874;27;123940;-73
2022/08/06 09:34:39;;;;;;;2.53;1.67;;;24.00;58.00;;;24.61;38.13;99434.75;5043796;27;122816;-72
2022/08/06 09:37:06;;;;;;;3.30;2.00;;;24.00;58.00;;;24.59;38.72;99431.50;5046258;27;114310;-73
2022/08/06 09:39:44;;;;;;;4.53;1.50;;;24.00;58.10;;;24.60;38.42;99438.78;5043788;27;113496;-71
2022/08/06 09:42:11;;;;;;;3.00;1.93;;;24.00;58.20;;;24.61;38.41;99434.75;5044685;27;124300;-71
2022/08/06 09:44:37;;;;;;;2.33;1.77;;;24.10;58.10;;;24.61;38.82;99437.59;5045354;27;123813;-71
2022/08/06 09:47:06;;;;;;;5.93;2.03;;;24.10;58.20;;;24.66;38.69;99437.22;5042166;27;114132;-71
2022/08/06 09:49:44;;;;;;;2.43;1.90;;;24.10;58.00;;;24.69;38.07;99430.78;5042306;27;113455;-72
2022/08/06 09:52:16;;;;;;;5.07;1.90;;;24.10;57.60;;;24.71;38.15;99438.03;5033346;27;124196;-71
2022/08/06 09:54:43;;;;;;;3.70;1.60;;;24.00;57.30;;;24.72;38.28;99434.84;5044026;27;123891;-72
2022/08/06 09:57:11;;;;;;;2.20;1.63;;;24.10;57.70;;;24.78;38.05;99432.47;5046986;27;114950;-71
2022/08/06 09:59:46;;;;;;;2.70;1.67;;;24.10;57.60;;;24.83;38.02;99438.53;5035911;27;115186;-72
2022/08/06 10:02:19;;;;;;;2.80;1.60;;;24.20;57.30;;;24.89;37.78;99433.34;5025568;27;122793;-71
2022/08/06 10:04:47;;;;;;;2.13;1.70;;;24.30;57.40;;;24.91;37.61;99437.38;5036850;27;123836;-72
2022/08/06 10:07:16;;;;;;;2.20;1.70;;;24.30;56.90;;;24.90;37.52;99427.31;5046274;27;114295;-72
2022/08/06 10:09:55;;;;;;;3.13;1.50;;;24.30;56.30;;;24.90;37.22;99434.94;5042943;27;112963;-72
2022/08/06 10:12:24;;;;;;;1.50;1.33;;;24.40;56.40;;;24.95;36.97;99437.41;5040635;27;124405;-72
2022/08/06 10:14:51;;;;;;;4.23;1.80;;;24.40;56.00;;;24.94;36.38;99435.00;5042773;27;123962;-72
2022/08/06 10:17:20;;;;;;;1.77;1.30;;;24.30;54.90;;;24.91;36.48;99436.59;5046046;27;114895;-72
2022/08/06 10:20:10;;;;;;;6.00;1.60;;;24.40;55.40;;;24.91;37.14;99434.56;5041168;27;114342;-72
2022/08/06 10:22:57;;;;;;;3.50;1.40;;;24.30;55.50;;;24.95;37.35;99442.25;5037494;27;124177;-72
2022/08/06 10:25:26;;;;;;;2.00;1.60;;;24.40;55.70;;;25.00;37.03;99448.34;5045258;27;124175;-72
2022/08/06 10:27:55;;;;;;;3.37;1.73;;;24.40;55.70;;;25.03;37.03;99446.75;5049179;27;114258;-72
2022/08/06 10:30:21;;;;;;;3.30;2.10;;;24.40;55.50;;;25.10;36.83;99439.13;5044316;27;114691;-73
2022/08/06 10:32:53;;;;;;;3.00;1.63;;;24.50;55.60;;;25.16;36.53;99436.75;5042472;27;124065;-73
2022/08/06 10:35:23;;;;;;;2.07;1.63;;;24.50;55.10;;;25.14;36.32;99422.97;5038294;27;124038;-73